Time,TemperatureF,DewpointF,PressureIn,WindDirection,WindDirectionDegrees,WindSpeedMPH,WindSpeedGustMPH,Humidity,HourlyPrecipIn,Conditions,Clouds,dailyrainin,SolarRadiationWatts/m^2,SoftwareType,DateUTC
2013-10-30 00:11:00,32.0,28.0,-100.00,West,275,0.0,0.0,85,0.00,,,0.00,0.000000,,2013-10-30 07:11:00,
2013-10-30 00:21:00,32.0,28.0,-100.00,West,275,0.0,0.0,85,0.00,,,0.00,0.000000,,2013-10-30 07:21:00,
2013-10-30 00:32:00,32.0,28.0,-100.00,West,275,0.0,0.0,85,0.00,,,0.00,0.000000,,2013-10-30 07:32:00,
2013-10-30 00:42:00,32.0,28.0,-100.00,West,275,0.0,0.0,85,0.00,,,0.00,0.000000,,2013-10-30 07:42:00,
2013-10-30 01:21:00,32.0,28.0,-100.00,NE,40,0.0,0.0,84,0.00,,,0.00,0.000000,,2013-10-30 08:21:00,
2013-10-30 01:32:00,32.0,28.0,-100.00,NE,40,0.0,0.0,84,0.00,,,0.00,0.000000,,2013-10-30 08:32:00,
2013-10-30 01:42:00,32.0,28.0,-100.00,NE,40,0.0,0.0,84,0.00,,,0.00,0.000000,,2013-10-30 08:42:00,
2013-10-30 02:22:00,32.0,29.0,-100.00,SE,131,0.0,0.0,88,0.00,,,0.00,0.000000,,2013-10-30 09:22:00,
2013-10-30 02:33:00,32.0,29.0,-100.00,SE,131,0.0,0.0,88,0.00,,,0.00,0.000000,,2013-10-30 09:33:00,
2013-10-30 02:42:00,32.0,29.0,-100.00,SE,131,0.0,0.0,88,0.00,,,0.00,0.000000,,2013-10-30 09:42:00,
2013-10-30 03:12:00,30.0,29.0,-100.00,South,179,0.0,0.0,96,0.00,,,0.00,0.000000,,2013-10-30 10:12:00,
2013-10-30 03:23:00,30.0,29.0,-100.00,South,179,0.0,0.0,96,0.00,,,0.00,0.000000,,2013-10-30 10:23:00,
2013-10-30 03:33:00,30.0,29.0,-100.00,South,179,0.0,0.0,96,0.00,,,0.00,0.000000,,2013-10-30 10:33:00,
2013-10-30 03:43:00,30.0,29.0,-100.00,South,179,0.0,0.0,96,0.00,,,0.00,0.000000,,2013-10-30 10:43:00,
2013-10-30 04:12:00,28.0,27.0,-100.00,SSE,162,0.0,4.0,95,0.00,,,0.00,0.000000,,2013-10-30 11:12:00,
2013-10-30 04:22:00,28.0,27.0,-100.00,SSE,162,0.0,4.0,95,0.00,,,0.00,0.000000,,2013-10-30 11:22:00,
2013-10-30 04:33:00,28.0,27.0,-100.00,SSE,162,0.0,4.0,95,0.00,,,0.00,0.000000,,2013-10-30 11:33:00,
2013-10-30 04:42:00,28.0,27.0,-100.00,SSE,162,0.0,4.0,95,0.00,,,0.00,0.000000,,2013-10-30 11:42:00,
2013-10-30 05:12:00,27.0,26.0,-100.00,SE,138,0.0,0.0,97,0.00,,,0.00,0.000000,,2013-10-30 12:12:00,
2013-10-30 05:22:00,27.0,26.0,-100.00,SE,138,0.0,0.0,97,0.00,,,0.00,0.000000,,2013-10-30 12:22:00,
2013-10-30 05:32:00,27.0,26.0,-100.00,SE,138,0.0,0.0,97,0.00,,,0.00,0.000000,,2013-10-30 12:32:00,
2013-10-30 05:42:00,27.0,26.0,-100.00,SE,138,0.0,0.0,97,0.00,,,0.00,0.000000,,2013-10-30 12:42:00,
2013-10-30 06:22:00,26.0,26.0,-100.00,SSE,150,0.0,0.0,100,0.00,,,0.00,0.000000,,2013-10-30 13:22:00,
2013-10-30 06:32:00,26.0,26.0,-100.00,SSE,150,0.0,0.0,100,0.00,,,0.00,0.000000,,2013-10-30 13:32:00,
2013-10-30 06:42:00,26.0,26.0,-100.00,SSE,150,0.0,0.0,100,0.00,,,0.00,0.000000,,2013-10-30 13:42:00,
2013-10-30 07:11:00,25.0,25.0,-100.00,SSE,156,0.0,0.0,98,0.00,,,0.00,0.000000,,2013-10-30 14:11:00,
2013-10-30 07:21:00,25.0,25.0,-100.00,SSE,156,0.0,0.0,98,0.00,,,0.00,0.000000,,2013-10-30 14:21:00,
2013-10-30 07:32:00,25.0,25.0,-100.00,SSE,156,0.0,0.0,98,0.00,,,0.00,0.000000,,2013-10-30 14:32:00,
2013-10-30 07:42:00,25.0,25.0,-100.00,SSE,156,0.0,0.0,98,0.00,,,0.00,0.000000,,2013-10-30 14:42:00,
2013-10-30 08:11:00,23.0,21.0,-100.00,SSE,153,0.0,0.0,91,0.00,,,0.00,3.000000,,2013-10-30 15:11:00,
2013-10-30 08:22:00,23.0,21.0,-100.00,SSE,153,0.0,0.0,91,0.00,,,0.00,3.000000,,2013-10-30 15:22:00,
2013-10-30 08:33:00,23.0,21.0,-100.00,SSE,153,0.0,0.0,91,0.00,,,0.00,3.000000,,2013-10-30 15:33:00,
2013-10-30 08:43:00,23.0,21.0,-100.00,SSE,153,0.0,0.0,91,0.00,,,0.00,3.000000,,2013-10-30 15:43:00,
2013-10-30 09:23:00,30.0,25.0,-100.00,West,263,0.0,0.0,81,0.00,,,-99.99,130.000000,,2013-10-30 16:23:00,
2013-10-30 09:33:00,30.0,25.0,-100.00,West,263,0.0,0.0,81,0.00,,,-99.99,130.000000,,2013-10-30 16:33:00,
2013-10-30 09:42:00,30.0,25.0,-100.00,West,263,0.0,0.0,81,0.00,,,-99.99,130.000000,,2013-10-30 16:42:00,
2013-10-30 10:22:00,38.0,24.0,-100.00,West,266,0.0,0.0,57,0.00,,,0.00,393.000000,,2013-10-30 17:22:00,
2013-10-30 10:33:00,38.0,24.0,-100.00,West,266,0.0,0.0,57,0.00,,,0.00,393.000000,,2013-10-30 17:33:00,
2013-10-30 10:42:00,38.0,24.0,-100.00,West,266,0.0,0.0,57,0.00,,,0.00,393.000000,,2013-10-30 17:42:00,
2013-10-30 11:12:00,45.0,21.0,-100.00,NW,304,0.0,3.0,38,0.00,,,0.00,571.000000,,2013-10-30 18:12:00,
2013-10-30 11:21:00,45.0,21.0,-100.00,NW,304,0.0,3.0,38,0.00,,,0.00,571.000000,,2013-10-30 18:21:00,
2013-10-30 11:32:00,45.0,21.0,-100.00,NW,304,0.0,3.0,38,0.00,,,0.00,571.000000,,2013-10-30 18:32:00,
2013-10-30 11:42:00,45.0,21.0,-100.00,NW,304,0.0,3.0,38,0.00,,,0.00,571.000000,,2013-10-30 18:42:00,
2013-10-30 12:42:00,49.0,20.0,-100.00,NNW,329,1.0,6.0,31,0.00,,,0.00,701.000000,,2013-10-30 19:42:00,
2013-10-30 13:12:00,52.0,22.0,-100.00,SW,216,2.0,8.0,31,0.00,,,0.00,683.000000,,2013-10-30 20:12:00,
2013-10-30 13:21:00,52.0,22.0,-100.00,SW,216,2.0,8.0,31,0.00,,,0.00,683.000000,,2013-10-30 20:21:00,
2013-10-30 13:32:00,52.0,22.0,-100.00,SW,216,2.0,8.0,31,0.00,,,0.00,683.000000,,2013-10-30 20:32:00,
2013-10-30 13:42:00,52.0,22.0,-100.00,SW,216,2.0,8.0,31,0.00,,,0.00,683.000000,,2013-10-30 20:42:00,
2013-10-30 14:21:00,53.0,25.0,-100.00,North,2,5.0,10.0,33,0.00,,,0.00,757.000000,,2013-10-30 21:21:00,
2013-10-30 14:33:00,53.0,25.0,-100.00,North,2,5.0,10.0,33,0.00,,,0.00,757.000000,,2013-10-30 21:33:00,
2013-10-30 14:43:00,53.0,25.0,-100.00,North,2,5.0,10.0,33,0.00,,,0.00,757.000000,,2013-10-30 21:43:00,
2013-10-30 15:13:00,55.0,24.0,-100.00,North,354,3.0,9.0,30,0.00,,,0.00,662.000000,,2013-10-30 22:13:00,
2013-10-30 15:23:00,55.0,24.0,-100.00,North,354,3.0,9.0,30,0.00,,,0.00,662.000000,,2013-10-30 22:23:00,
2013-10-30 15:34:00,55.0,24.0,-100.00,North,354,3.0,9.0,30,0.00,,,0.00,662.000000,,2013-10-30 22:34:00,
2013-10-30 15:43:00,55.0,24.0,-100.00,North,354,3.0,9.0,30,0.00,,,0.00,662.000000,,2013-10-30 22:43:00,
2013-10-30 16:12:00,55.0,24.0,-100.00,SSW,198,2.0,6.0,30,0.00,,,0.00,413.000000,,2013-10-30 23:12:00,
2013-10-30 16:22:00,55.0,24.0,-100.00,SSW,198,2.0,6.0,30,0.00,,,0.00,413.000000,,2013-10-30 23:22:00,
2013-10-30 16:33:00,55.0,24.0,-100.00,SSW,198,2.0,6.0,30,0.00,,,0.00,413.000000,,2013-10-30 23:33:00,
2013-10-30 16:42:00,55.0,24.0,-100.00,SSW,198,2.0,6.0,30,0.00,,,0.00,413.000000,,2013-10-30 23:42:00,
2013-10-30 17:11:00,52.0,22.0,-100.00,NNW,338,4.0,10.0,31,0.00,,,0.00,355.000000,,2013-10-31 00:11:00,
2013-10-30 17:22:00,52.0,22.0,-100.00,NNW,338,4.0,10.0,31,0.00,,,0.00,355.000000,,2013-10-31 00:22:00,
2013-10-30 17:32:00,52.0,22.0,-100.00,NNW,338,4.0,10.0,31,0.00,,,0.00,355.000000,,2013-10-31 00:32:00,
2013-10-30 17:42:00,52.0,22.0,-100.00,NNW,338,4.0,10.0,31,0.00,,,0.00,355.000000,,2013-10-31 00:42:00,
2013-10-30 18:12:00,46.0,25.0,-100.00,WNW,296,0.0,9.0,43,0.00,,,-99.99,122.000000,,2013-10-31 01:12:00,
2013-10-30 18:22:00,46.0,25.0,-100.00,WNW,296,0.0,9.0,43,0.00,,,-99.99,122.000000,,2013-10-31 01:22:00,
2013-10-30 18:32:00,46.0,25.0,-100.00,WNW,296,0.0,9.0,43,0.00,,,-99.99,122.000000,,2013-10-31 01:32:00,
2013-10-30 18:42:00,46.0,25.0,-100.00,WNW,296,0.0,9.0,43,0.00,,,-99.99,122.000000,,2013-10-31 01:42:00,
2013-10-30 19:22:00,40.0,24.0,-100.00,SSW,194,0.0,2.0,53,0.00,,,0.00,2.000000,,2013-10-31 02:22:00,
2013-10-30 19:32:00,40.0,24.0,-100.00,SSW,194,0.0,2.0,53,0.00,,,0.00,2.000000,,2013-10-31 02:32:00,
2013-10-30 19:41:00,40.0,24.0,-100.00,SSW,194,0.0,2.0,53,0.00,,,0.00,2.000000,,2013-10-31 02:41:00,
2013-10-30 20:11:00,35.0,22.0,-100.00,SW,224,0.0,3.0,59,0.00,,,0.00,0.000000,,2013-10-31 03:11:00,
2013-10-30 20:22:00,35.0,22.0,-100.00,SW,224,0.0,3.0,59,0.00,,,0.00,0.000000,,2013-10-31 03:22:00,
2013-10-30 20:34:00,35.0,22.0,-100.00,SW,224,0.0,3.0,59,0.00,,,0.00,0.000000,,2013-10-31 03:34:00,
2013-10-30 20:44:00,35.0,22.0,-100.00,SW,224,0.0,3.0,59,0.00,,,0.00,0.000000,,2013-10-31 03:44:00,
2013-10-30 21:23:00,34.0,25.0,-100.00,SSE,149,0.0,3.0,69,0.00,,,0.00,0.000000,,2013-10-31 04:23:00,
2013-10-30 21:34:00,34.0,25.0,-100.00,SSE,149,0.0,3.0,69,0.00,,,0.00,0.000000,,2013-10-31 04:34:00,
2013-10-30 21:43:00,34.0,25.0,-100.00,SSE,149,0.0,3.0,69,0.00,,,0.00,0.000000,,2013-10-31 04:43:00,
2013-10-30 22:13:00,31.0,24.0,-100.00,West,272,0.0,0.0,75,0.00,,,0.00,0.000000,,2013-10-31 05:13:00,
2013-10-30 22:23:00,31.0,24.0,-100.00,West,272,0.0,0.0,75,0.00,,,0.00,0.000000,,2013-10-31 05:23:00,
2013-10-30 22:33:00,31.0,24.0,-100.00,West,272,0.0,0.0,75,0.00,,,0.00,0.000000,,2013-10-31 05:33:00,
2013-10-30 22:43:00,31.0,24.0,-100.00,West,272,0.0,0.0,75,0.00,,,0.00,0.000000,,2013-10-31 05:43:00,
2013-10-30 23:12:00,30.0,25.0,-100.00,NNE,20,0.0,0.0,82,0.00,,,0.00,0.000000,,2013-10-31 06:12:00,
2013-10-30 23:21:00,30.0,25.0,-100.00,NNE,20,0.0,0.0,82,0.00,,,0.00,0.000000,,2013-10-31 06:21:00,
2013-10-30 23:33:00,30.0,25.0,-100.00,NNE,20,0.0,0.0,82,0.00,,,0.00,0.000000,,2013-10-31 06:33:00,
2013-10-30 23:42:00,30.0,25.0,-100.00,NNE,20,0.0,0.0,82,0.00,,,0.00,0.000000,,2013-10-31 06:42:00,